Check out our new PWSWeather beta!
PWSweather.com
Personal Weather Stations
Station Observations
79674
AfterstegDE 79674

AfterstegDE 79674

Lat: 47.84344, Lon: 7.92844

Elevation: 809

Station Type: Davis Vantage 2 Aktive

Latest ConditionsUpdated 1:07:03 PM GMT+01:01 Thursday, Feb 27, 2020
Currently Today's Max Today's Min Today's Average
Temperature 30.2°F-1.0°C 32.7°F0.4°C 29.1°F-1.6°C 30.2°F-1.0°C
Dew Point 28.2°F-2.1°C 28.4°F-2.0°C 26.8°F-2.9°C 27.9°F-2.3°C
Winds 4.9 mph SE7.9 kmh SE 6.9 mph -11.1 kmh - - 2.7 mph 4.3 kmh
Wind Gusts 2.9 mph4.7 kmh 10.1 mph16.3 kmh - -
Humidity 92% 94% 79% 91%
Pressure 29.57 in1001.4 mb 29.94 in1013.9 mb 29.57 in1001.4 mb -
Precipitation - 0.08 in2.0 mm - -
Hour Temp Dew Point Humidity Winds Wind Gusts Pressure Precip Precip Rate Daily Precip Total
01:07 PM 30.2°F-1.0°C 28.2°F-2.1°C 92% 4.9 mph SE7.9 kmh SE 2.9 mph4.7 kmh 29.57 in1001.4 mb - 0.05 in1.3 mm 0.08 in2.0 mm
01:02 PM 30.2°F-1.0°C 28.2°F-2.1°C 92% 4.0 mph E6.4 kmh E 6.9 mph11.1 kmh 29.57 in1001.4 mb - 0.04 in1.0 mm 0.07 in1.8 mm
12:57 PM 30.2°F-1.0°C 27.9°F-2.3°C 91% 4.9 mph ESE7.9 kmh ESE 4.0 mph6.4 kmh 29.58 in1001.7 mb - 0.04 in1.0 mm 0.07 in1.8 mm
12:52 PM 30.2°F-1.0°C 27.9°F-2.3°C 91% 4.9 mph SE7.9 kmh SE 4.0 mph6.4 kmh 29.58 in1001.7 mb - 0.05 in1.3 mm 0.06 in1.5 mm
12:47 PM 30.2°F-1.0°C 27.7°F-2.4°C 90% 4.0 mph ESE6.4 kmh ESE 6.9 mph11.1 kmh 29.59 in1002.0 mb - 0.05 in1.3 mm 0.06 in1.5 mm
12:42 PM 30.4°F-0.9°C 27.9°F-2.3°C 90% 4.0 mph SE6.4 kmh SE 4.0 mph6.4 kmh 29.60 in1002.4 mb - 0.05 in1.3 mm 0.06 in1.5 mm
12:37 PM 30.4°F-0.9°C 27.5°F-2.5°C 89% 4.0 mph SE6.4 kmh SE 4.0 mph6.4 kmh 29.60 in1002.4 mb - 0.03 in0.8 mm 0.06 in1.5 mm
12:32 PM 30.6°F-0.8°C 27.7°F-2.4°C 89% 4.9 mph ESE7.9 kmh ESE 2.9 mph4.7 kmh 29.61 in1002.7 mb - 0.03 in0.8 mm 0.05 in1.3 mm
12:27 PM 30.6°F-0.8°C 27.5°F-2.5°C 88% 4.9 mph SE7.9 kmh SE 6.0 mph9.7 kmh 29.61 in1002.7 mb - 0.00 in0.0 mm 0.05 in1.3 mm
12:22 PM 30.7°F-0.7°C 27.3°F-2.6°C 87% 4.0 mph SE6.4 kmh SE 4.0 mph6.4 kmh 29.62 in1003.0 mb - 0.00 in0.0 mm 0.05 in1.3 mm
12:17 PM 31.1°F-0.5°C 27.3°F-2.6°C 86% 2.9 mph SE4.7 kmh SE 4.0 mph6.4 kmh 29.63 in1003.4 mb - 0.00 in0.0 mm 0.04 in1.0 mm
12:12 PM 31.5°F-0.3°C 27.1°F-2.7°C 84% 2.9 mph SE4.7 kmh SE 2.9 mph4.7 kmh 29.64 in1003.7 mb - 0.00 in0.0 mm 0.04 in1.0 mm
12:07 PM 31.6°F-0.2°C 27.1°F-2.7°C 83% 4.0 mph SE6.4 kmh SE 0.9 mph1.4 kmh 29.64 in1003.7 mb - 0.00 in0.0 mm 0.04 in1.0 mm
12:02 PM 32.2°F0.1°C 27.0°F-2.8°C 81% 2.9 mph SE4.7 kmh SE -- 29.65 in1004.1 mb - 0.00 in0.0 mm 0.04 in1.0 mm
11:57 AM 32.5°F0.3°C 27.1°F-2.7°C 80% 2.0 mph SSE3.2 kmh SSE 2.9 mph4.7 kmh 29.66 in1004.4 mb - 0.00 in0.0 mm 0.04 in1.0 mm
11:52 AM 32.5°F0.3°C 26.8°F-2.9°C 79% 2.0 mph SSW3.2 kmh SSW 2.9 mph4.7 kmh 29.66 in1004.4 mb - 0.00 in0.0 mm 0.04 in1.0 mm
11:47 AM 32.5°F0.3°C 26.8°F-2.9°C 79% 2.0 mph SSE3.2 kmh SSE 0.9 mph1.4 kmh 29.67 in1004.7 mb - 0.00 in0.0 mm 0.04 in1.0 mm
11:42 AM 32.5°F0.3°C 27.1°F-2.7°C 80% 0.9 mph S1.4 kmh S -- 29.67 in1004.7 mb - 0.00 in0.0 mm 0.04 in1.0 mm
11:37 AM 32.7°F0.4°C 27.3°F-2.6°C 80% 0.9 mph ENE1.4 kmh ENE 4.0 mph6.4 kmh 29.68 in1005.1 mb - 0.00 in0.0 mm 0.04 in1.0 mm
11:32 AM 32.7°F0.4°C 27.5°F-2.5°C 81% Calm Calm -- 29.68 in1005.1 mb - 0.00 in0.0 mm 0.04 in1.0 mm
11:27 AM 32.5°F0.3°C 27.7°F-2.4°C 82% Calm Calm -- 29.69 in1005.4 mb - 0.00 in0.0 mm 0.04 in1.0 mm
11:22 AM 32.5°F0.3°C 27.7°F-2.4°C 82% Calm Calm -- 29.69 in1005.4 mb - 0.00 in0.0 mm 0.04 in1.0 mm
11:17 AM 32.5°F0.3°C 28.0°F-2.2°C 83% Calm Calm -- 29.70 in1005.8 mb - 0.00 in0.0 mm 0.04 in1.0 mm
11:12 AM 32.5°F0.3°C 28.0°F-2.2°C 83% 0.9 mph SE1.4 kmh SE -- 29.71 in1006.1 mb - 0.00 in0.0 mm 0.04 in1.0 mm
11:07 AM 32.4°F0.2°C 28.0°F-2.2°C 84% 0.9 mph SE1.4 kmh SE -- 29.71 in1006.1 mb - 0.00 in0.0 mm 0.04 in1.0 mm
11:02 AM 32.4°F0.2°C 28.0°F-2.2°C 84% 2.0 mph ESE3.2 kmh ESE 0.9 mph1.4 kmh 29.72 in1006.4 mb - 0.00 in0.0 mm 0.04 in1.0 mm
10:57 AM 32.2°F0.1°C 27.9°F-2.3°C 84% 0.9 mph ESE1.4 kmh ESE -- 29.72 in1006.4 mb - 0.00 in0.0 mm 0.04 in1.0 mm
10:52 AM 32.0°F0.0°C 28.0°F-2.2°C 85% Calm Calm 4.0 mph6.4 kmh 29.73 in1006.8 mb - 0.00 in0.0 mm 0.04 in1.0 mm
10:47 AM 31.8°F-0.1°C 27.9°F-2.3°C 85% 2.0 mph SE3.2 kmh SE -- 29.73 in1006.8 mb - 0.00 in0.0 mm 0.04 in1.0 mm
10:42 AM 31.6°F-0.2°C 27.7°F-2.4°C 85% 2.9 mph ESE4.7 kmh ESE 2.9 mph4.7 kmh 29.74 in1007.1 mb - 0.00 in0.0 mm 0.04 in1.0 mm
10:37 AM 31.5°F-0.3°C 27.7°F-2.4°C 86% 2.9 mph ESE4.7 kmh ESE 2.9 mph4.7 kmh 29.75 in1007.5 mb - 0.00 in0.0 mm 0.04 in1.0 mm
10:32 AM 31.5°F-0.3°C 27.7°F-2.4°C 86% 4.0 mph ESE6.4 kmh ESE 4.9 mph7.9 kmh 29.76 in1007.8 mb - 0.00 in0.0 mm 0.04 in1.0 mm
10:27 AM 31.3°F-0.4°C 27.9°F-2.3°C 87% 2.9 mph ESE4.7 kmh ESE 4.9 mph7.9 kmh 29.76 in1007.8 mb - 0.00 in0.0 mm 0.04 in1.0 mm
10:22 AM 31.3°F-0.4°C 27.9°F-2.3°C 87% 4.0 mph SE6.4 kmh SE 0.9 mph1.4 kmh 29.77 in1008.1 mb - 0.00 in0.0 mm 0.04 in1.0 mm
10:17 AM 31.3°F-0.4°C 28.2°F-2.1°C 88% 2.9 mph SE4.7 kmh SE 4.9 mph7.9 kmh 29.77 in1008.1 mb - 0.00 in0.0 mm 0.04 in1.0 mm
10:12 AM 31.3°F-0.4°C 28.2°F-2.1°C 88% 2.0 mph SE3.2 kmh SE 2.0 mph3.2 kmh 29.77 in1008.1 mb - 0.00 in0.0 mm 0.04 in1.0 mm
10:07 AM 31.1°F-0.5°C 28.0°F-2.2°C 88% 0.9 mph ESE1.4 kmh ESE -- 29.77 in1008.1 mb - 0.00 in0.0 mm 0.04 in1.0 mm
10:02 AM 30.9°F-0.6°C 27.9°F-2.3°C 88% 2.0 mph E3.2 kmh E 4.9 mph7.9 kmh 29.78 in1008.5 mb - 0.00 in0.0 mm 0.04 in1.0 mm
09:57 AM 30.9°F-0.6°C 28.0°F-2.2°C 89% 4.0 mph SSE6.4 kmh SSE 4.0 mph6.4 kmh 29.78 in1008.5 mb - 0.00 in0.0 mm 0.04 in1.0 mm
09:52 AM 30.9°F-0.6°C 28.0°F-2.2°C 89% 4.0 mph SSE6.4 kmh SSE 4.9 mph7.9 kmh 29.78 in1008.5 mb - 0.00 in0.0 mm 0.04 in1.0 mm
09:47 AM 30.9°F-0.6°C 28.0°F-2.2°C 89% 2.0 mph SE3.2 kmh SE 2.0 mph3.2 kmh 29.79 in1008.8 mb - 0.00 in0.0 mm 0.04 in1.0 mm
09:42 AM 30.9°F-0.6°C 28.4°F-2.0°C 90% 2.9 mph SE4.7 kmh SE 0.9 mph1.4 kmh 29.79 in1008.8 mb - 0.00 in0.0 mm 0.04 in1.0 mm
09:37 AM 30.9°F-0.6°C 28.4°F-2.0°C 90% 4.0 mph ESE6.4 kmh ESE -- 29.80 in1009.1 mb - 0.00 in0.0 mm 0.04 in1.0 mm
09:32 AM 30.7°F-0.7°C 28.2°F-2.1°C 90% 4.0 mph ENE6.4 kmh ENE 10.1 mph16.3 kmh 29.80 in1009.1 mb - 0.00 in0.0 mm 0.04 in1.0 mm
09:27 AM 30.7°F-0.7°C 28.4°F-2.0°C 91% 4.0 mph ESE6.4 kmh ESE 4.0 mph6.4 kmh 29.80 in1009.1 mb - 0.00 in0.0 mm 0.04 in1.0 mm
09:22 AM 30.7°F-0.7°C 28.4°F-2.0°C 91% 4.9 mph SE7.9 kmh SE 0.9 mph1.4 kmh 29.81 in1009.5 mb - 0.00 in0.0 mm 0.04 in1.0 mm
09:17 AM 30.6°F-0.8°C 28.2°F-2.1°C 91% 4.0 mph SE6.4 kmh SE 4.0 mph6.4 kmh 29.81 in1009.5 mb - 0.00 in0.0 mm 0.04 in1.0 mm
09:12 AM 30.6°F-0.8°C 28.2°F-2.1°C 91% 2.9 mph SE4.7 kmh SE 4.9 mph7.9 kmh 29.81 in1009.5 mb - 0.00 in0.0 mm 0.04 in1.0 mm
09:07 AM 30.4°F-0.9°C 28.0°F-2.2°C 91% 4.0 mph ESE6.4 kmh ESE -- 29.82 in1009.8 mb - 0.00 in0.0 mm 0.04 in1.0 mm
09:02 AM 30.4°F-0.9°C 28.4°F-2.0°C 92% 4.0 mph ESE6.4 kmh ESE 4.0 mph6.4 kmh 29.82 in1009.8 mb - 0.00 in0.0 mm 0.04 in1.0 mm
08:57 AM 30.4°F-0.9°C 28.4°F-2.0°C 92% 4.0 mph ESE6.4 kmh ESE 2.9 mph4.7 kmh 29.83 in1010.2 mb - 0.00 in0.0 mm 0.04 in1.0 mm
08:52 AM 30.2°F-1.0°C 28.2°F-2.1°C 92% 4.9 mph SE7.9 kmh SE 4.9 mph7.9 kmh 29.83 in1010.2 mb - 0.00 in0.0 mm 0.04 in1.0 mm
08:47 AM 30.0°F-1.1°C 28.0°F-2.2°C 92% 4.0 mph SE6.4 kmh SE 4.9 mph7.9 kmh 29.83 in1010.2 mb - 0.00 in0.0 mm 0.04 in1.0 mm
08:42 AM 30.2°F-1.0°C 28.2°F-2.1°C 92% 4.0 mph SE6.4 kmh SE 6.0 mph9.7 kmh 29.84 in1010.5 mb - 0.00 in0.0 mm 0.04 in1.0 mm
08:37 AM 30.2°F-1.0°C 28.4°F-2.0°C 93% 4.0 mph SE6.4 kmh SE 4.0 mph6.4 kmh 29.84 in1010.5 mb - 0.00 in0.0 mm 0.04 in1.0 mm
08:32 AM 30.2°F-1.0°C 28.4°F-2.0°C 93% 2.9 mph SE4.7 kmh SE 0.9 mph1.4 kmh 29.84 in1010.5 mb - 0.00 in0.0 mm 0.04 in1.0 mm
08:27 AM 30.2°F-1.0°C 28.4°F-2.0°C 93% 4.0 mph SE6.4 kmh SE 2.9 mph4.7 kmh 29.84 in1010.5 mb - 0.00 in0.0 mm 0.04 in1.0 mm
08:22 AM 30.0°F-1.1°C 28.2°F-2.1°C 93% 4.0 mph SE6.4 kmh SE 4.0 mph6.4 kmh 29.85 in1010.8 mb - 0.00 in0.0 mm 0.04 in1.0 mm
08:17 AM 30.0°F-1.1°C 28.2°F-2.1°C 93% 2.9 mph SE4.7 kmh SE 4.0 mph6.4 kmh 29.85 in1010.8 mb - 0.00 in0.0 mm 0.04 in1.0 mm
08:12 AM 30.0°F-1.1°C 28.2°F-2.1°C 93% 4.9 mph SE7.9 kmh SE 4.9 mph7.9 kmh 29.85 in1010.8 mb - 0.00 in0.0 mm 0.04 in1.0 mm
08:07 AM 30.0°F-1.1°C 28.2°F-2.1°C 93% 4.9 mph ESE7.9 kmh ESE 4.9 mph7.9 kmh 29.85 in1010.8 mb - 0.00 in0.0 mm 0.04 in1.0 mm
08:02 AM 30.0°F-1.1°C 28.2°F-2.1°C 93% 4.9 mph E7.9 kmh E 4.0 mph6.4 kmh 29.86 in1011.2 mb - 0.00 in0.0 mm 0.04 in1.0 mm
07:57 AM 30.0°F-1.1°C 28.2°F-2.1°C 93% 6.9 mph ESE11.1 kmh ESE 2.0 mph3.2 kmh 29.86 in1011.2 mb - 0.00 in0.0 mm 0.04 in1.0 mm
07:52 AM 29.8°F-1.2°C 28.0°F-2.2°C 93% 6.9 mph ESE11.1 kmh ESE 10.1 mph16.3 kmh 29.86 in1011.2 mb - 0.00 in0.0 mm 0.04 in1.0 mm
07:47 AM 29.8°F-1.2°C 28.0°F-2.2°C 93% 6.0 mph SE9.7 kmh SE 10.1 mph16.3 kmh 29.86 in1011.2 mb - 0.00 in0.0 mm 0.04 in1.0 mm
07:42 AM 29.8°F-1.2°C 28.0°F-2.2°C 93% 4.9 mph E7.9 kmh E 2.9 mph4.7 kmh 29.87 in1011.5 mb - 0.00 in0.0 mm 0.04 in1.0 mm
07:37 AM 29.8°F-1.2°C 28.0°F-2.2°C 93% 2.9 mph E4.7 kmh E 6.0 mph9.7 kmh 29.87 in1011.5 mb - 0.00 in0.0 mm 0.04 in1.0 mm
07:32 AM 29.8°F-1.2°C 28.0°F-2.2°C 93% 2.9 mph ESE4.7 kmh ESE 4.9 mph7.9 kmh 29.87 in1011.5 mb - 0.00 in0.0 mm 0.04 in1.0 mm
07:27 AM 29.8°F-1.2°C 28.0°F-2.2°C 93% 4.0 mph SE6.4 kmh SE 8.1 mph13.0 kmh 29.87 in1011.5 mb - 0.00 in0.0 mm 0.04 in1.0 mm
07:22 AM 29.8°F-1.2°C 28.0°F-2.2°C 93% 4.0 mph SE6.4 kmh SE 2.9 mph4.7 kmh 29.87 in1011.5 mb - 0.00 in0.0 mm 0.04 in1.0 mm
07:17 AM 29.8°F-1.2°C 28.0°F-2.2°C 93% 6.0 mph NE9.7 kmh NE 6.0 mph9.7 kmh 29.87 in1011.5 mb - 0.00 in0.0 mm 0.04 in1.0 mm
07:12 AM 29.8°F-1.2°C 28.0°F-2.2°C 93% 6.0 mph ENE9.7 kmh ENE -- 29.88 in1011.9 mb - 0.00 in0.0 mm 0.04 in1.0 mm
07:07 AM 29.8°F-1.2°C 28.0°F-2.2°C 93% 6.0 mph NE9.7 kmh NE 2.0 mph3.2 kmh 29.89 in1012.2 mb - 0.00 in0.0 mm 0.03 in0.8 mm
07:02 AM 29.8°F-1.2°C 28.0°F-2.2°C 93% 6.0 mph E9.7 kmh E 6.0 mph9.7 kmh 29.89 in1012.2 mb - 0.00 in0.0 mm 0.03 in0.8 mm
06:57 AM 29.8°F-1.2°C 28.0°F-2.2°C 93% 4.9 mph SE7.9 kmh SE 8.9 mph14.3 kmh 29.89 in1012.2 mb - 0.00 in0.0 mm 0.03 in0.8 mm
06:52 AM 29.8°F-1.2°C 28.0°F-2.2°C 93% 4.9 mph SE7.9 kmh SE 4.9 mph7.9 kmh 29.89 in1012.2 mb - 0.00 in0.0 mm 0.03 in0.8 mm
06:47 AM 30.0°F-1.1°C 28.2°F-2.1°C 93% 4.0 mph SE6.4 kmh SE 6.0 mph9.7 kmh 29.89 in1012.2 mb - 0.00 in0.0 mm 0.03 in0.8 mm
06:42 AM 30.0°F-1.1°C 28.2°F-2.1°C 93% 2.0 mph SE3.2 kmh SE 6.9 mph11.1 kmh 29.90 in1012.5 mb - 0.00 in0.0 mm 0.03 in0.8 mm
06:37 AM 30.0°F-1.1°C 28.2°F-2.1°C 93% 2.9 mph S4.7 kmh S -- 29.90 in1012.5 mb - 0.00 in0.0 mm 0.03 in0.8 mm
06:32 AM 29.8°F-1.2°C 28.0°F-2.2°C 93% 2.9 mph SE4.7 kmh SE -- 29.90 in1012.5 mb - 0.00 in0.0 mm 0.03 in0.8 mm
06:27 AM 29.8°F-1.2°C 28.0°F-2.2°C 93% 2.9 mph SE4.7 kmh SE 4.9 mph7.9 kmh 29.90 in1012.5 mb - 0.00 in0.0 mm 0.03 in0.8 mm
06:22 AM 29.8°F-1.2°C 28.0°F-2.2°C 93% 4.0 mph SE6.4 kmh SE 2.9 mph4.7 kmh 29.90 in1012.5 mb - 0.00 in0.0 mm 0.03 in0.8 mm
06:17 AM 29.8°F-1.2°C 28.0°F-2.2°C 93% 4.9 mph SSE7.9 kmh SSE 2.0 mph3.2 kmh 29.90 in1012.5 mb - 0.00 in0.0 mm 0.03 in0.8 mm
06:12 AM 29.8°F-1.2°C 28.0°F-2.2°C 93% 4.0 mph SE6.4 kmh SE 8.9 mph14.3 kmh 29.90 in1012.5 mb - 0.00 in0.0 mm 0.03 in0.8 mm
06:07 AM 29.8°F-1.2°C 28.0°F-2.2°C 93% 2.9 mph SSE4.7 kmh SSE 2.9 mph4.7 kmh 29.90 in1012.5 mb - 0.00 in0.0 mm 0.03 in0.8 mm
06:02 AM 29.8°F-1.2°C 28.0°F-2.2°C 93% 4.0 mph SE6.4 kmh SE 2.0 mph3.2 kmh 29.91 in1012.9 mb - 0.00 in0.0 mm 0.03 in0.8 mm
05:57 AM 29.8°F-1.2°C 28.0°F-2.2°C 93% 4.0 mph NE6.4 kmh NE 8.1 mph13.0 kmh 29.91 in1012.9 mb - 0.00 in0.0 mm 0.03 in0.8 mm
05:52 AM 29.8°F-1.2°C 28.0°F-2.2°C 93% 2.9 mph ESE4.7 kmh ESE 6.9 mph11.1 kmh 29.91 in1012.9 mb - 0.00 in0.0 mm 0.03 in0.8 mm
05:47 AM 29.8°F-1.2°C 28.0°F-2.2°C 93% 4.0 mph S6.4 kmh S -- 29.91 in1012.9 mb - 0.00 in0.0 mm 0.03 in0.8 mm
05:42 AM 29.8°F-1.2°C 28.0°F-2.2°C 93% 4.0 mph SSE6.4 kmh SSE 4.9 mph7.9 kmh 29.91 in1012.9 mb - 0.00 in0.0 mm 0.03 in0.8 mm
05:37 AM 29.8°F-1.2°C 28.0°F-2.2°C 93% 4.0 mph SE6.4 kmh SE 2.9 mph4.7 kmh 29.92 in1013.2 mb - 0.00 in0.0 mm 0.03 in0.8 mm
05:32 AM 29.8°F-1.2°C 28.0°F-2.2°C 93% 4.0 mph SE6.4 kmh SE 4.0 mph6.4 kmh 29.92 in1013.2 mb - 0.00 in0.0 mm 0.03 in0.8 mm
05:27 AM 29.8°F-1.2°C 28.0°F-2.2°C 93% 2.9 mph SE4.7 kmh SE 2.9 mph4.7 kmh 29.92 in1013.2 mb - 0.00 in0.0 mm 0.03 in0.8 mm
05:22 AM 29.8°F-1.2°C 28.0°F-2.2°C 93% 4.0 mph SSE6.4 kmh SSE 6.0 mph9.7 kmh 29.92 in1013.2 mb - 0.00 in0.0 mm 0.03 in0.8 mm
05:17 AM 29.8°F-1.2°C 28.0°F-2.2°C 93% 4.0 mph SE6.4 kmh SE 6.9 mph11.1 kmh 29.92 in1013.2 mb - 0.00 in0.0 mm 0.03 in0.8 mm
05:12 AM 29.8°F-1.2°C 28.0°F-2.2°C 93% 4.0 mph ESE6.4 kmh ESE 10.1 mph16.3 kmh 29.91 in1012.9 mb - 0.00 in0.0 mm 0.03 in0.8 mm
05:07 AM 29.8°F-1.2°C 28.0°F-2.2°C 93% 2.9 mph SE4.7 kmh SE 2.9 mph4.7 kmh 29.92 in1013.2 mb - 0.00 in0.0 mm 0.03 in0.8 mm
05:02 AM 29.8°F-1.2°C 28.0°F-2.2°C 93% 2.9 mph SE4.7 kmh SE 6.9 mph11.1 kmh 29.92 in1013.2 mb - 0.00 in0.0 mm 0.03 in0.8 mm
04:57 AM 29.8°F-1.2°C 28.0°F-2.2°C 93% 4.0 mph ESE6.4 kmh ESE 4.0 mph6.4 kmh 29.92 in1013.2 mb - 0.00 in0.0 mm 0.03 in0.8 mm
04:52 AM 29.8°F-1.2°C 28.0°F-2.2°C 93% 4.0 mph SE6.4 kmh SE 2.9 mph4.7 kmh 29.92 in1013.2 mb - 0.00 in0.0 mm 0.03 in0.8 mm
04:47 AM 29.8°F-1.2°C 28.0°F-2.2°C 93% 4.0 mph SSE6.4 kmh SSE 2.9 mph4.7 kmh 29.92 in1013.2 mb - 0.00 in0.0 mm 0.03 in0.8 mm
04:42 AM 29.8°F-1.2°C 28.0°F-2.2°C 93% 4.0 mph SE6.4 kmh SE 4.9 mph7.9 kmh 29.92 in1013.2 mb - 0.00 in0.0 mm 0.03 in0.8 mm
04:37 AM 29.8°F-1.2°C 28.0°F-2.2°C 93% 2.9 mph SE4.7 kmh SE 6.0 mph9.7 kmh 29.92 in1013.2 mb - 0.00 in0.0 mm 0.03 in0.8 mm
04:32 AM 29.7°F-1.3°C 28.2°F-2.1°C 94% 0.9 mph ESE1.4 kmh ESE 6.9 mph11.1 kmh 29.92 in1013.2 mb - 0.00 in0.0 mm 0.03 in0.8 mm
04:27 AM 29.7°F-1.3°C 28.2°F-2.1°C 94% 2.0 mph ENE3.2 kmh ENE -- 29.92 in1013.2 mb - 0.00 in0.0 mm 0.03 in0.8 mm
04:22 AM 29.7°F-1.3°C 28.2°F-2.1°C 94% 2.9 mph ESE4.7 kmh ESE -- 29.92 in1013.2 mb - 0.00 in0.0 mm 0.03 in0.8 mm
04:17 AM 29.7°F-1.3°C 28.2°F-2.1°C 94% 2.0 mph NE3.2 kmh NE -- 29.92 in1013.2 mb - 0.00 in0.0 mm 0.03 in0.8 mm
04:12 AM 29.7°F-1.3°C 28.2°F-2.1°C 94% 4.0 mph NE6.4 kmh NE -- 29.92 in1013.2 mb - 0.00 in0.0 mm 0.03 in0.8 mm
04:07 AM 29.7°F-1.3°C 28.2°F-2.1°C 94% 2.9 mph NE4.7 kmh NE 6.9 mph11.1 kmh 29.92 in1013.2 mb - 0.00 in0.0 mm 0.03 in0.8 mm
04:02 AM 29.7°F-1.3°C 28.2°F-2.1°C 94% 2.0 mph SE3.2 kmh SE 0.9 mph1.4 kmh 29.92 in1013.2 mb - 0.00 in0.0 mm 0.03 in0.8 mm
03:57 AM 29.7°F-1.3°C 28.2°F-2.1°C 94% 0.9 mph NW1.4 kmh NW 2.0 mph3.2 kmh 29.92 in1013.2 mb - 0.00 in0.0 mm 0.03 in0.8 mm
03:52 AM 29.7°F-1.3°C 28.2°F-2.1°C 94% 0.9 mph SSE1.4 kmh SSE -- 29.92 in1013.2 mb - 0.00 in0.0 mm 0.03 in0.8 mm
03:47 AM 29.7°F-1.3°C 28.2°F-2.1°C 94% 2.0 mph SE3.2 kmh SE 2.9 mph4.7 kmh 29.92 in1013.2 mb - 0.00 in0.0 mm 0.03 in0.8 mm
03:42 AM 29.5°F-1.4°C 27.7°F-2.4°C 93% 2.0 mph E3.2 kmh E -- 29.92 in1013.2 mb - 0.00 in0.0 mm 0.03 in0.8 mm
03:37 AM 29.7°F-1.3°C 27.9°F-2.3°C 93% 2.0 mph ESE3.2 kmh ESE -- 29.93 in1013.5 mb - 0.00 in0.0 mm 0.03 in0.8 mm
03:32 AM 29.7°F-1.3°C 27.9°F-2.3°C 93% 4.0 mph ESE6.4 kmh ESE 4.9 mph7.9 kmh 29.93 in1013.5 mb - 0.00 in0.0 mm 0.03 in0.8 mm
03:27 AM 29.7°F-1.3°C 27.9°F-2.3°C 93% 2.9 mph SE4.7 kmh SE 6.0 mph9.7 kmh 29.93 in1013.5 mb - 0.00 in0.0 mm 0.03 in0.8 mm
03:22 AM 29.7°F-1.3°C 27.9°F-2.3°C 93% 0.9 mph SE1.4 kmh SE 4.0 mph6.4 kmh 29.93 in1013.5 mb - 0.00 in0.0 mm 0.03 in0.8 mm
03:17 AM 29.7°F-1.3°C 27.9°F-2.3°C 93% Calm Calm -- 29.93 in1013.5 mb - 0.00 in0.0 mm 0.03 in0.8 mm
03:12 AM 29.7°F-1.3°C 27.9°F-2.3°C 93% Calm Calm -- 29.93 in1013.5 mb - 0.00 in0.0 mm 0.03 in0.8 mm
03:07 AM 29.7°F-1.3°C 27.9°F-2.3°C 93% Calm Calm -- 29.93 in1013.5 mb - 0.00 in0.0 mm 0.03 in0.8 mm
03:02 AM 29.7°F-1.3°C 27.9°F-2.3°C 93% 0.9 mph E1.4 kmh E -- 29.94 in1013.9 mb - 0.00 in0.0 mm 0.03 in0.8 mm
02:57 AM 29.7°F-1.3°C 27.9°F-2.3°C 93% 2.0 mph E3.2 kmh E -- 29.94 in1013.9 mb - 0.00 in0.0 mm 0.03 in0.8 mm
02:52 AM 29.7°F-1.3°C 27.9°F-2.3°C 93% 2.0 mph E3.2 kmh E 4.9 mph7.9 kmh 29.94 in1013.9 mb - 0.00 in0.0 mm 0.03 in0.8 mm
02:47 AM 29.7°F-1.3°C 27.9°F-2.3°C 93% 0.9 mph SE1.4 kmh SE -- 29.94 in1013.9 mb - 0.00 in0.0 mm 0.03 in0.8 mm
02:42 AM 29.7°F-1.3°C 27.9°F-2.3°C 93% 0.9 mph SE1.4 kmh SE -- 29.94 in1013.9 mb - 0.00 in0.0 mm 0.03 in0.8 mm
02:37 AM 29.7°F-1.3°C 27.9°F-2.3°C 93% 0.9 mph SE1.4 kmh SE 4.9 mph7.9 kmh 29.94 in1013.9 mb - 0.00 in0.0 mm 0.03 in0.8 mm
02:32 AM 29.7°F-1.3°C 27.9°F-2.3°C 93% 0.9 mph ENE1.4 kmh ENE -- 29.94 in1013.9 mb - 0.00 in0.0 mm 0.03 in0.8 mm
02:27 AM 29.7°F-1.3°C 27.9°F-2.3°C 93% 2.0 mph NNE3.2 kmh NNE -- 29.94 in1013.9 mb - 0.00 in0.0 mm 0.03 in0.8 mm
02:22 AM 29.7°F-1.3°C 27.9°F-2.3°C 93% 2.9 mph SW4.7 kmh SW -- 29.94 in1013.9 mb - 0.00 in0.0 mm 0.03 in0.8 mm
02:17 AM 29.7°F-1.3°C 27.9°F-2.3°C 93% 2.0 mph NW3.2 kmh NW -- 29.94 in1013.9 mb - 0.00 in0.0 mm 0.03 in0.8 mm
02:12 AM 29.7°F-1.3°C 28.2°F-2.1°C 94% 2.0 mph WSW3.2 kmh WSW 8.9 mph14.3 kmh 29.94 in1013.9 mb - 0.00 in0.0 mm 0.03 in0.8 mm
02:07 AM 29.7°F-1.3°C 28.2°F-2.1°C 94% 2.0 mph WSW3.2 kmh WSW 6.9 mph11.1 kmh 29.94 in1013.9 mb - 0.00 in0.0 mm 0.02 in0.5 mm
02:02 AM 29.7°F-1.3°C 28.2°F-2.1°C 94% 0.9 mph N1.4 kmh N -- 29.94 in1013.9 mb - 0.00 in0.0 mm 0.02 in0.5 mm
01:57 AM 29.7°F-1.3°C 28.2°F-2.1°C 94% 0.9 mph NNE1.4 kmh NNE -- 29.94 in1013.9 mb - 0.03 in0.8 mm 0.02 in0.5 mm
01:52 AM 29.5°F-1.4°C 28.0°F-2.2°C 94% 2.9 mph NE4.7 kmh NE 0.9 mph1.4 kmh 29.94 in1013.9 mb - 0.05 in1.3 mm 0.02 in0.5 mm
01:47 AM 29.5°F-1.4°C 28.0°F-2.2°C 94% 4.9 mph NE7.9 kmh NE -- 29.94 in1013.9 mb - 0.05 in1.3 mm 0.02 in0.5 mm
01:42 AM 29.5°F-1.4°C 28.0°F-2.2°C 94% 2.9 mph W4.7 kmh W 4.0 mph6.4 kmh 29.94 in1013.9 mb - 0.05 in1.3 mm 0.02 in0.5 mm
01:37 AM 29.3°F-1.5°C 27.9°F-2.3°C 94% 0.9 mph NNE1.4 kmh NNE 10.1 mph16.3 kmh 29.94 in1013.9 mb - 0.06 in1.5 mm 0.01 in0.3 mm
01:32 AM 29.3°F-1.5°C 27.9°F-2.3°C 94% 0.9 mph NW1.4 kmh NW -- 29.94 in1013.9 mb - 0.06 in1.5 mm 0.01 in0.3 mm
01:27 AM 29.3°F-1.5°C 27.9°F-2.3°C 94% 0.9 mph W1.4 kmh W 4.0 mph6.4 kmh 29.94 in1013.9 mb - 0.00 in0.0 mm 0.07 in1.8 mm
01:22 AM 29.3°F-1.5°C 27.9°F-2.3°C 94% Calm Calm -- 29.94 in1013.9 mb - 0.00 in0.0 mm 0.07 in1.8 mm
01:17 AM 29.3°F-1.5°C 27.9°F-2.3°C 94% Calm Calm -- 29.94 in1013.9 mb - 0.00 in0.0 mm 0.07 in1.8 mm
01:12 AM 29.3°F-1.5°C 27.9°F-2.3°C 94% Calm Calm -- 29.94 in1013.9 mb - 0.00 in0.0 mm 0.07 in1.8 mm
01:07 AM 29.3°F-1.5°C 27.9°F-2.3°C 94% Calm Calm -- 29.93 in1013.5 mb - 0.00 in0.0 mm 0.07 in1.8 mm
01:02 AM 29.3°F-1.5°C 27.9°F-2.3°C 94% Calm Calm -- 29.94 in1013.9 mb - 0.00 in0.0 mm 0.07 in1.8 mm
12:57 AM 29.3°F-1.5°C 27.9°F-2.3°C 94% Calm Calm -- 29.93 in1013.5 mb - 0.00 in0.0 mm 0.07 in1.8 mm
12:52 AM 29.3°F-1.5°C 27.9°F-2.3°C 94% Calm Calm -- 29.93 in1013.5 mb - 0.00 in0.0 mm 0.07 in1.8 mm
12:47 AM 29.3°F-1.5°C 27.9°F-2.3°C 94% 2.0 mph SE3.2 kmh SE -- 29.93 in1013.5 mb - 0.00 in0.0 mm 0.07 in1.8 mm
12:42 AM 29.3°F-1.5°C 27.9°F-2.3°C 94% 2.0 mph ESE3.2 kmh ESE 0.9 mph1.4 kmh 29.93 in1013.5 mb - 0.00 in0.0 mm 0.07 in1.8 mm
12:37 AM 29.3°F-1.5°C 27.9°F-2.3°C 94% 0.9 mph SE1.4 kmh SE 4.9 mph7.9 kmh 29.93 in1013.5 mb - 0.00 in0.0 mm 0.07 in1.8 mm
12:32 AM 29.1°F-1.6°C 27.7°F-2.4°C 94% Calm Calm -- 29.93 in1013.5 mb - 0.00 in0.0 mm 0.07 in1.8 mm
12:27 AM 29.3°F-1.5°C 27.5°F-2.5°C 93% Calm Calm -- 29.93 in1013.5 mb - 0.00 in0.0 mm 0.07 in1.8 mm
12:22 AM 29.3°F-1.5°C 27.5°F-2.5°C 93% Calm Calm -- 29.93 in1013.5 mb - 0.00 in0.0 mm 0.07 in1.8 mm
12:17 AM 29.3°F-1.5°C 27.5°F-2.5°C 93% Calm Calm -- 29.93 in1013.5 mb - 0.00 in0.0 mm 0.07 in1.8 mm
12:12 AM 29.3°F-1.5°C 27.5°F-2.5°C 93% 0.9 mph SE1.4 kmh SE -- 29.93 in1013.5 mb - 0.00 in0.0 mm 0.07 in1.8 mm
12:07 AM 29.3°F-1.5°C 27.5°F-2.5°C 93% 0.9 mph SE1.4 kmh SE -- 29.93 in1013.5 mb - 0.03 in0.8 mm 0.07 in1.8 mm
12:02 AM 29.1°F-1.6°C 27.3°F-2.6°C 93% Calm Calm -- 29.93 in1013.5 mb - 0.04 in1.0 mm 0.36 in9.1 mm